sensor_id;sensor_type;location;lat;lon;timestamp;temperature;humidity
36002;DHT22;22070;50.922;5.430;2023-11-19T00:02:19;13.20;99.90
36002;DHT22;22070;50.922;5.430;2023-11-19T00:04:44;13.20;99.90
36002;DHT22;22070;50.922;5.430;2023-11-19T00:07:10;13.20;99.90
36002;DHT22;22070;50.922;5.430;2023-11-19T00:09:37;13.20;99.90
36002;DHT22;22070;50.922;5.430;2023-11-19T00:12:04;13.10;99.90
36002;DHT22;22070;50.922;5.430;2023-11-19T00:14:30;13.20;99.90
36002;DHT22;22070;50.922;5.430;2023-11-19T00:16:56;13.20;99.90
36002;DHT22;22070;50.922;5.430;2023-11-19T00:19:22;13.20;99.90
36002;DHT22;22070;50.922;5.430;2023-11-19T00:21:48;13.20;99.90
36002;DHT22;22070;50.922;5.430;2023-11-19T00:24:13;13.20;99.90
36002;DHT22;22070;50.922;5.430;2023-11-19T00:26:42;13.20;99.90
36002;DHT22;22070;50.922;5.430;2023-11-19T00:29:08;13.20;99.90
36002;DHT22;22070;50.922;5.430;2023-11-19T00:31:33;13.20;99.90
36002;DHT22;22070;50.922;5.430;2023-11-19T00:33:59;13.20;99.90
36002;DHT22;22070;50.922;5.430;2023-11-19T00:36:25;13.30;99.90
36002;DHT22;22070;50.922;5.430;2023-11-19T00:38:51;13.30;99.90
36002;DHT22;22070;50.922;5.430;2023-11-19T00:41:18;13.30;99.90
36002;DHT22;22070;50.922;5.430;2023-11-19T00:43:44;13.30;99.90
36002;DHT22;22070;50.922;5.430;2023-11-19T00:46:10;13.30;99.90
36002;DHT22;22070;50.922;5.430;2023-11-19T00:48:39;13.40;99.90
36002;DHT22;22070;50.922;5.430;2023-11-19T00:51:05;13.40;99.90
36002;DHT22;22070;50.922;5.430;2023-11-19T00:53:31;13.30;99.90
36002;DHT22;22070;50.922;5.430;2023-11-19T00:55:58;13.40;99.90
36002;DHT22;22070;50.922;5.430;2023-11-19T00:58:23;13.40;99.90
36002;DHT22;22070;50.922;5.430;2023-11-19T01:00:49;13.40;99.90
36002;DHT22;22070;50.922;5.430;2023-11-19T01:03:15;13.40;99.90
36002;DHT22;22070;50.922;5.430;2023-11-19T01:05:44;13.40;99.90
36002;DHT22;22070;50.922;5.430;2023-11-19T01:08:12;13.40;99.90
36002;DHT22;22070;50.922;5.430;2023-11-19T01:10:37;13.50;99.90
36002;DHT22;22070;50.922;5.430;2023-11-19T01:13:03;13.40;99.90
36002;DHT22;22070;50.922;5.430;2023-11-19T01:15:31;13.40;99.90
36002;DHT22;22070;50.922;5.430;2023-11-19T01:17:57;13.40;99.90
36002;DHT22;22070;50.922;5.430;2023-11-19T01:20:23;13.50;99.90
36002;DHT22;22070;50.922;5.430;2023-11-19T01:22:49;13.50;99.90
36002;DHT22;22070;50.922;5.430;2023-11-19T01:25:14;13.50;99.90
36002;DHT22;22070;50.922;5.430;2023-11-19T01:27:40;13.50;99.90
36002;DHT22;22070;50.922;5.430;2023-11-19T01:30:06;13.50;99.90
36002;DHT22;22070;50.922;5.430;2023-11-19T01:32:35;13.60;99.90
36002;DHT22;22070;50.922;5.430;2023-11-19T01:35:03;13.70;99.90
36002;DHT22;22070;50.922;5.430;2023-11-19T01:37:28;13.60;99.90
36002;DHT22;22070;50.922;5.430;2023-11-19T01:39:54;13.70;99.90
36002;DHT22;22070;50.922;5.430;2023-11-19T01:42:20;13.70;99.90
36002;DHT22;22070;50.922;5.430;2023-11-19T01:44:58;13.70;99.90
36002;DHT22;22070;50.922;5.430;2023-11-19T01:47:25;13.80;99.90
36002;DHT22;22070;50.922;5.430;2023-11-19T01:49:52;13.80;99.90
36002;DHT22;22070;50.922;5.430;2023-11-19T01:52:18;13.80;99.90
36002;DHT22;22070;50.922;5.430;2023-11-19T01:54:44;13.80;99.90
36002;DHT22;22070;50.922;5.430;2023-11-19T01:57:10;13.70;99.90
36002;DHT22;22070;50.922;5.430;2023-11-19T01:59:37;13.70;99.90
36002;DHT22;22070;50.922;5.430;2023-11-19T02:02:04;13.70;99.90
36002;DHT22;22070;50.922;5.430;2023-11-19T02:04:31;13.70;99.90
36002;DHT22;22070;50.922;5.430;2023-11-19T02:06:58;13.70;99.90
36002;DHT22;22070;50.922;5.430;2023-11-19T02:09:24;13.70;99.90
36002;DHT22;22070;50.922;5.430;2023-11-19T02:11:50;13.60;99.90
36002;DHT22;22070;50.922;5.430;2023-11-19T02:14:17;13.70;99.90
36002;DHT22;22070;50.922;5.430;2023-11-19T02:16:43;13.70;99.90
36002;DHT22;22070;50.922;5.430;2023-11-19T02:19:09;13.70;99.90
36002;DHT22;22070;50.922;5.430;2023-11-19T02:21:36;13.70;99.90
36002;DHT22;22070;50.922;5.430;2023-11-19T02:24:06;13.70;99.90
36002;DHT22;22070;50.922;5.430;2023-11-19T02:26:47;13.70;99.90
36002;DHT22;22070;50.922;5.430;2023-11-19T02:29:14;13.70;99.90
36002;DHT22;22070;50.922;5.430;2023-11-19T02:31:40;13.60;99.90
36002;DHT22;22070;50.922;5.430;2023-11-19T02:34:06;13.70;99.90
36002;DHT22;22070;50.922;5.430;2023-11-19T02:36:31;13.60;99.90
36002;DHT22;22070;50.922;5.430;2023-11-19T02:38:58;13.60;99.90
36002;DHT22;22070;50.922;5.430;2023-11-19T02:41:23;13.60;99.90
36002;DHT22;22070;50.922;5.430;2023-11-19T02:43:49;13.60;99.90
36002;DHT22;22070;50.922;5.430;2023-11-19T02:46:15;13.60;99.90
36002;DHT22;22070;50.922;5.430;2023-11-19T02:48:43;13.70;99.90
36002;DHT22;22070;50.922;5.430;2023-11-19T02:51:10;13.70;99.90
36002;DHT22;22070;50.922;5.430;2023-11-19T02:53:36;13.70;99.90
36002;DHT22;22070;50.922;5.430;2023-11-19T02:56:05;13.70;99.90
36002;DHT22;22070;50.922;5.430;2023-11-19T02:58:45;13.70;99.90
36002;DHT22;22070;50.922;5.430;2023-11-19T03:01:12;13.70;99.90
36002;DHT22;22070;50.922;5.430;2023-11-19T03:03:48;13.60;99.90
36002;DHT22;22070;50.922;5.430;2023-11-19T03:06:19;13.60;99.90
36002;DHT22;22070;50.922;5.430;2023-11-19T03:08:45;13.60;99.90
36002;DHT22;22070;50.922;5.430;2023-11-19T03:11:11;13.60;99.90
36002;DHT22;22070;50.922;5.430;2023-11-19T03:13:36;13.60;99.90
36002;DHT22;22070;50.922;5.430;2023-11-19T03:16:02;13.50;99.90
36002;DHT22;22070;50.922;5.430;2023-11-19T03:18:27;13.60;99.90
36002;DHT22;22070;50.922;5.430;2023-11-19T03:20:53;13.60;99.90
36002;DHT22;22070;50.922;5.430;2023-11-19T03:23:19;13.50;99.90
36002;DHT22;22070;50.922;5.430;2023-11-19T03:25:45;13.50;99.90
36002;DHT22;22070;50.922;5.430;2023-11-19T03:28:11;13.40;99.90
36002;DHT22;22070;50.922;5.430;2023-11-19T03:30:36;13.40;99.90
36002;DHT22;22070;50.922;5.430;2023-11-19T03:33:02;13.30;99.90
36002;DHT22;22070;50.922;5.430;2023-11-19T03:35:28;13.30;99.90
36002;DHT22;22070;50.922;5.430;2023-11-19T03:37:54;13.30;99.90
36002;DHT22;22070;50.922;5.430;2023-11-19T03:40:20;13.30;99.90
36002;DHT22;22070;50.922;5.430;2023-11-19T03:42:46;13.40;99.90
36002;DHT22;22070;50.922;5.430;2023-11-19T03:45:12;13.30;99.90
36002;DHT22;22070;50.922;5.430;2023-11-19T03:47:38;13.30;99.90
36002;DHT22;22070;50.922;5.430;2023-11-19T03:50:04;13.30;99.90
36002;DHT22;22070;50.922;5.430;2023-11-19T03:52:30;13.20;99.90
36002;DHT22;22070;50.922;5.430;2023-11-19T03:54:56;13.20;99.90
36002;DHT22;22070;50.922;5.430;2023-11-19T03:57:24;13.20;99.90
36002;DHT22;22070;50.922;5.430;2023-11-19T03:59:50;13.20;99.90
36002;DHT22;22070;50.922;5.430;2023-11-19T04:02:16;13.10;99.90
36002;DHT22;22070;50.922;5.430;2023-11-19T04:04:42;13.10;99.90
36002;DHT22;22070;50.922;5.430;2023-11-19T04:07:08;13.00;99.90
36002;DHT22;22070;50.922;5.430;2023-11-19T04:09:33;13.00;99.90
36002;DHT22;22070;50.922;5.430;2023-11-19T04:11:59;13.00;99.90
36002;DHT22;22070;50.922;5.430;2023-11-19T04:14:26;13.00;99.90
36002;DHT22;22070;50.922;5.430;2023-11-19T04:16:52;13.00;99.90
36002;DHT22;22070;50.922;5.430;2023-11-19T04:19:18;13.00;99.90
36002;DHT22;22070;50.922;5.430;2023-11-19T04:21:44;12.90;99.90
36002;DHT22;22070;50.922;5.430;2023-11-19T04:24:10;13.00;99.90
36002;DHT22;22070;50.922;5.430;2023-11-19T04:26:43;13.00;99.90
36002;DHT22;22070;50.922;5.430;2023-11-19T04:29:12;12.90;99.90
36002;DHT22;22070;50.922;5.430;2023-11-19T04:31:38;12.90;99.90
36002;DHT22;22070;50.922;5.430;2023-11-19T04:34:05;12.80;99.90
36002;DHT22;22070;50.922;5.430;2023-11-19T04:36:32;12.90;99.90
36002;DHT22;22070;50.922;5.430;2023-11-19T04:38:59;12.80;99.90
36002;DHT22;22070;50.922;5.430;2023-11-19T04:41:25;12.90;99.90
36002;DHT22;22070;50.922;5.430;2023-11-19T04:43:53;12.80;99.90
36002;DHT22;22070;50.922;5.430;2023-11-19T04:46:19;12.80;99.90
36002;DHT22;22070;50.922;5.430;2023-11-19T04:48:44;12.80;99.90
36002;DHT22;22070;50.922;5.430;2023-11-19T04:51:10;12.80;99.90
36002;DHT22;22070;50.922;5.430;2023-11-19T04:53:36;12.80;99.90
36002;DHT22;22070;50.922;5.430;2023-11-19T04:56:08;12.80;99.90
36002;DHT22;22070;50.922;5.430;2023-11-19T04:58:34;12.80;99.90
36002;DHT22;22070;50.922;5.430;2023-11-19T05:01:01;12.80;99.90
36002;DHT22;22070;50.922;5.430;2023-11-19T05:03:27;12.70;99.90
36002;DHT22;22070;50.922;5.430;2023-11-19T05:05:52;12.80;99.90
36002;DHT22;22070;50.922;5.430;2023-11-19T05:08:19;12.70;99.90
36002;DHT22;22070;50.922;5.430;2023-11-19T05:10:44;12.70;99.90
36002;DHT22;22070;50.922;5.430;2023-11-19T05:13:10;12.70;99.90
36002;DHT22;22070;50.922;5.430;2023-11-19T05:15:36;12.80;99.90
36002;DHT22;22070;50.922;5.430;2023-11-19T05:18:01;12.80;99.90
36002;DHT22;22070;50.922;5.430;2023-11-19T05:20:27;12.80;99.90
36002;DHT22;22070;50.922;5.430;2023-11-19T05:22:53;12.80;99.90
36002;DHT22;22070;50.922;5.430;2023-11-19T05:25:19;12.80;99.90
36002;DHT22;22070;50.922;5.430;2023-11-19T05:27:45;12.90;99.90
36002;DHT22;22070;50.922;5.430;2023-11-19T05:30:11;12.90;99.90
36002;DHT22;22070;50.922;5.430;2023-11-19T05:32:37;12.90;99.90
36002;DHT22;22070;50.922;5.430;2023-11-19T05:35:03;12.80;99.90
36002;DHT22;22070;50.922;5.430;2023-11-19T05:37:28;12.80;99.90
36002;DHT22;22070;50.922;5.430;2023-11-19T05:39:54;12.80;99.90
36002;DHT22;22070;50.922;5.430;2023-11-19T05:42:20;12.70;99.90
36002;DHT22;22070;50.922;5.430;2023-11-19T05:44:45;12.70;99.90
36002;DHT22;22070;50.922;5.430;2023-11-19T05:47:11;12.70;99.90
36002;DHT22;22070;50.922;5.430;2023-11-19T05:49:37;12.70;99.90
36002;DHT22;22070;50.922;5.430;2023-11-19T05:52:04;12.70;99.90
36002;DHT22;22070;50.922;5.430;2023-11-19T05:54:33;12.60;99.90
36002;DHT22;22070;50.922;5.430;2023-11-19T05:57:06;12.70;99.90
36002;DHT22;22070;50.922;5.430;2023-11-19T05:59:35;12.70;99.90
36002;DHT22;22070;50.922;5.430;2023-11-19T06:02:01;12.60;99.90
36002;DHT22;22070;50.922;5.430;2023-11-19T06:04:28;12.50;99.90
36002;DHT22;22070;50.922;5.430;2023-11-19T06:06:54;12.50;99.90
36002;DHT22;22070;50.922;5.430;2023-11-19T06:09:22;12.60;99.90
36002;DHT22;22070;50.922;5.430;2023-11-19T06:11:51;12.50;99.90
36002;DHT22;22070;50.922;5.430;2023-11-19T06:14:18;12.50;99.90
36002;DHT22;22070;50.922;5.430;2023-11-19T06:16:44;12.50;99.90
36002;DHT22;22070;50.922;5.430;2023-11-19T06:19:09;12.40;99.90
36002;DHT22;22070;50.922;5.430;2023-11-19T06:21:36;12.40;99.90
36002;DHT22;22070;50.922;5.430;2023-11-19T06:24:02;12.40;99.90
36002;DHT22;22070;50.922;5.430;2023-11-19T06:26:28;12.40;99.90
36002;DHT22;22070;50.922;5.430;2023-11-19T06:28:54;12.40;99.90
36002;DHT22;22070;50.922;5.430;2023-11-19T06:31:20;12.30;99.90
36002;DHT22;22070;50.922;5.430;2023-11-19T06:33:46;12.30;99.90
36002;DHT22;22070;50.922;5.430;2023-11-19T06:36:14;12.30;99.90
36002;DHT22;22070;50.922;5.430;2023-11-19T06:38:42;12.20;99.90
36002;DHT22;22070;50.922;5.430;2023-11-19T06:41:08;12.20;99.90
36002;DHT22;22070;50.922;5.430;2023-11-19T06:43:34;12.20;99.90
36002;DHT22;22070;50.922;5.430;2023-11-19T06:46:00;12.20;99.90
36002;DHT22;22070;50.922;5.430;2023-11-19T06:48:27;12.20;99.90
36002;DHT22;22070;50.922;5.430;2023-11-19T06:50:52;12.10;99.90
36002;DHT22;22070;50.922;5.430;2023-11-19T06:53:19;12.10;99.90
36002;DHT22;22070;50.922;5.430;2023-11-19T06:55:44;12.10;99.90
36002;DHT22;22070;50.922;5.430;2023-11-19T06:58:11;12.10;99.90
36002;DHT22;22070;50.922;5.430;2023-11-19T07:00:37;12.00;99.90
36002;DHT22;22070;50.922;5.430;2023-11-19T07:03:03;12.00;99.90
36002;DHT22;22070;50.922;5.430;2023-11-19T07:05:29;12.00;99.90
36002;DHT22;22070;50.922;5.430;2023-11-19T07:07:55;12.10;99.90
36002;DHT22;22070;50.922;5.430;2023-11-19T07:10:21;12.10;99.90
36002;DHT22;22070;50.922;5.430;2023-11-19T07:12:47;12.10;99.90
36002;DHT22;22070;50.922;5.430;2023-11-19T07:15:13;12.10;99.90
36002;DHT22;22070;50.922;5.430;2023-11-19T07:17:39;12.10;99.90
36002;DHT22;22070;50.922;5.430;2023-11-19T07:20:09;12.10;99.90
36002;DHT22;22070;50.922;5.430;2023-11-19T07:22:38;12.10;99.90
36002;DHT22;22070;50.922;5.430;2023-11-19T07:25:04;12.10;99.90
36002;DHT22;22070;50.922;5.430;2023-11-19T07:27:30;12.10;99.90
36002;DHT22;22070;50.922;5.430;2023-11-19T07:29:56;12.10;99.90
36002;DHT22;22070;50.922;5.430;2023-11-19T07:32:21;12.00;99.90
36002;DHT22;22070;50.922;5.430;2023-11-19T07:34:47;12.00;99.90
36002;DHT22;22070;50.922;5.430;2023-11-19T07:37:13;12.00;99.90
36002;DHT22;22070;50.922;5.430;2023-11-19T07:39:38;12.00;99.90
36002;DHT22;22070;50.922;5.430;2023-11-19T07:42:06;12.00;99.90
36002;DHT22;22070;50.922;5.430;2023-11-19T07:44:32;12.00;99.90
36002;DHT22;22070;50.922;5.430;2023-11-19T07:46:57;12.00;99.90
36002;DHT22;22070;50.922;5.430;2023-11-19T07:49:24;12.00;99.90
36002;DHT22;22070;50.922;5.430;2023-11-19T07:51:49;12.00;99.90
36002;DHT22;22070;50.922;5.430;2023-11-19T07:54:15;11.90;99.90
36002;DHT22;22070;50.922;5.430;2023-11-19T07:56:40;12.00;99.90
36002;DHT22;22070;50.922;5.430;2023-11-19T07:59:06;11.90;99.90
36002;DHT22;22070;50.922;5.430;2023-11-19T08:01:32;11.90;99.90
36002;DHT22;22070;50.922;5.430;2023-11-19T08:03:58;11.90;99.90
36002;DHT22;22070;50.922;5.430;2023-11-19T08:06:24;12.00;99.90
36002;DHT22;22070;50.922;5.430;2023-11-19T08:08:50;12.00;99.90
36002;DHT22;22070;50.922;5.430;2023-11-19T08:11:17;12.00;99.90
36002;DHT22;22070;50.922;5.430;2023-11-19T08:13:42;12.00;99.90
36002;DHT22;22070;50.922;5.430;2023-11-19T08:16:08;12.00;99.90
36002;DHT22;22070;50.922;5.430;2023-11-19T08:18:35;12.10;99.90
36002;DHT22;22070;50.922;5.430;2023-11-19T08:21:00;12.10;99.90
36002;DHT22;22070;50.922;5.430;2023-11-19T08:23:26;12.10;99.90
36002;DHT22;22070;50.922;5.430;2023-11-19T08:25:54;12.10;99.90
36002;DHT22;22070;50.922;5.430;2023-11-19T08:28:19;12.20;99.90
36002;DHT22;22070;50.922;5.430;2023-11-19T08:30:45;12.20;99.90
36002;DHT22;22070;50.922;5.430;2023-11-19T08:33:11;12.20;99.90
36002;DHT22;22070;50.922;5.430;2023-11-19T08:35:36;12.30;99.90
36002;DHT22;22070;50.922;5.430;2023-11-19T08:38:02;12.30;99.90
36002;DHT22;22070;50.922;5.430;2023-11-19T08:40:28;12.40;99.90
36002;DHT22;22070;50.922;5.430;2023-11-19T08:42:55;12.40;99.90
36002;DHT22;22070;50.922;5.430;2023-11-19T08:45:22;12.40;99.90
36002;DHT22;22070;50.922;5.430;2023-11-19T08:47:48;12.40;99.90
36002;DHT22;22070;50.922;5.430;2023-11-19T08:50:14;12.40;99.90
36002;DHT22;22070;50.922;5.430;2023-11-19T08:52:40;12.50;99.90
36002;DHT22;22070;50.922;5.430;2023-11-19T08:55:06;12.60;99.90
36002;DHT22;22070;50.922;5.430;2023-11-19T08:57:32;12.50;99.90
36002;DHT22;22070;50.922;5.430;2023-11-19T09:00:00;12.50;99.90
36002;DHT22;22070;50.922;5.430;2023-11-19T09:02:26;12.60;99.90
36002;DHT22;22070;50.922;5.430;2023-11-19T09:04:52;12.60;99.90
36002;DHT22;22070;50.922;5.430;2023-11-19T09:07:17;12.60;99.90
36002;DHT22;22070;50.922;5.430;2023-11-19T09:09:43;12.60;99.90
36002;DHT22;22070;50.922;5.430;2023-11-19T09:12:09;12.60;99.90
36002;DHT22;22070;50.922;5.430;2023-11-19T09:14:34;12.70;99.90
36002;DHT22;22070;50.922;5.430;2023-11-19T09:17:00;12.70;99.90
36002;DHT22;22070;50.922;5.430;2023-11-19T09:19:26;12.70;99.90
36002;DHT22;22070;50.922;5.430;2023-11-19T09:21:52;12.70;99.90
36002;DHT22;22070;50.922;5.430;2023-11-19T09:24:18;12.70;99.90
36002;DHT22;22070;50.922;5.430;2023-11-19T09:26:44;12.80;99.90
36002;DHT22;22070;50.922;5.430;2023-11-19T09:29:10;12.80;99.90
36002;DHT22;22070;50.922;5.430;2023-11-19T09:31:37;12.90;99.90
36002;DHT22;22070;50.922;5.430;2023-11-19T09:34:03;12.90;99.90
36002;DHT22;22070;50.922;5.430;2023-11-19T09:36:29;12.90;99.90
36002;DHT22;22070;50.922;5.430;2023-11-19T09:38:55;12.90;99.90
36002;DHT22;22070;50.922;5.430;2023-11-19T09:41:21;12.90;99.90
36002;DHT22;22070;50.922;5.430;2023-11-19T09:43:47;13.00;99.90
36002;DHT22;22070;50.922;5.430;2023-11-19T09:46:14;13.00;99.90
36002;DHT22;22070;50.922;5.430;2023-11-19T09:48:41;13.00;99.90
36002;DHT22;22070;50.922;5.430;2023-11-19T09:51:08;13.10;99.90
36002;DHT22;22070;50.922;5.430;2023-11-19T09:53:35;13.10;99.90
36002;DHT22;22070;50.922;5.430;2023-11-19T09:56:02;13.10;99.90
36002;DHT22;22070;50.922;5.430;2023-11-19T09:58:32;12.90;99.90
36002;DHT22;22070;50.922;5.430;2023-11-19T10:00:58;12.70;99.90
36002;DHT22;22070;50.922;5.430;2023-11-19T10:03:32;12.70;99.90
36002;DHT22;22070;50.922;5.430;2023-11-19T10:05:58;12.70;99.90
36002;DHT22;22070;50.922;5.430;2023-11-19T10:08:24;12.70;99.90
36002;DHT22;22070;50.922;5.430;2023-11-19T10:10:50;12.80;99.90
36002;DHT22;22070;50.922;5.430;2023-11-19T10:13:17;12.80;99.90
36002;DHT22;22070;50.922;5.430;2023-11-19T10:15:43;12.90;99.90
36002;DHT22;22070;50.922;5.430;2023-11-19T10:18:09;13.00;99.90
36002;DHT22;22070;50.922;5.430;2023-11-19T10:20:36;13.10;99.90
36002;DHT22;22070;50.922;5.430;2023-11-19T10:23:02;13.20;99.90
36002;DHT22;22070;50.922;5.430;2023-11-19T10:25:29;13.30;99.90
36002;DHT22;22070;50.922;5.430;2023-11-19T10:27:56;13.40;99.90
36002;DHT22;22070;50.922;5.430;2023-11-19T10:30:23;13.40;99.90
36002;DHT22;22070;50.922;5.430;2023-11-19T10:33:10;13.50;99.90
36002;DHT22;22070;50.922;5.430;2023-11-19T10:35:54;13.50;99.90
36002;DHT22;22070;50.922;5.430;2023-11-19T10:38:20;13.50;99.90
36002;DHT22;22070;50.922;5.430;2023-11-19T10:40:48;13.50;99.90
36002;DHT22;22070;50.922;5.430;2023-11-19T10:43:13;13.50;99.90
36002;DHT22;22070;50.922;5.430;2023-11-19T10:45:39;13.50;99.90
36002;DHT22;22070;50.922;5.430;2023-11-19T10:48:06;13.50;99.90
36002;DHT22;22070;50.922;5.430;2023-11-19T10:50:42;13.40;99.90
36002;DHT22;22070;50.922;5.430;2023-11-19T10:53:10;13.40;99.90
36002;DHT22;22070;50.922;5.430;2023-11-19T10:55:37;13.30;99.90
36002;DHT22;22070;50.922;5.430;2023-11-19T10:58:08;13.30;99.90
36002;DHT22;22070;50.922;5.430;2023-11-19T11:00:44;13.30;99.90
36002;DHT22;22070;50.922;5.430;2023-11-19T11:03:20;13.40;99.90
36002;DHT22;22070;50.922;5.430;2023-11-19T11:05:49;13.50;99.90
36002;DHT22;22070;50.922;5.430;2023-11-19T11:08:15;13.50;99.90
36002;DHT22;22070;50.922;5.430;2023-11-19T11:11:01;13.60;99.90
36002;DHT22;22070;50.922;5.430;2023-11-19T11:13:27;13.60;99.90
36002;DHT22;22070;50.922;5.430;2023-11-19T11:15:57;13.60;99.90
36002;DHT22;22070;50.922;5.430;2023-11-19T11:18:26;13.70;99.90
36002;DHT22;22070;50.922;5.430;2023-11-19T11:21:20;13.70;99.90
36002;DHT22;22070;50.922;5.430;2023-11-19T11:27:16;13.70;99.90
36002;DHT22;22070;50.922;5.430;2023-11-19T11:29:26;13.80;99.90
36002;DHT22;22070;50.922;5.430;2023-11-19T11:32:08;13.80;99.90
36002;DHT22;22070;50.922;5.430;2023-11-19T11:37:45;13.80;99.90
36002;DHT22;22070;50.922;5.430;2023-11-19T11:40:17;13.70;99.90
36002;DHT22;22070;50.922;5.430;2023-11-19T11:42:44;13.70;99.90
36002;DHT22;22070;50.922;5.430;2023-11-19T11:45:14;13.60;99.90
36002;DHT22;22070;50.922;5.430;2023-11-19T11:50:15;13.40;99.90
36002;DHT22;22070;50.922;5.430;2023-11-19T11:57:50;13.30;99.90
36002;DHT22;22070;50.922;5.430;2023-11-19T12:00:26;13.30;99.90
36002;DHT22;22070;50.922;5.430;2023-11-19T12:02:54;13.30;99.90
36002;DHT22;22070;50.922;5.430;2023-11-19T12:05:21;13.30;99.90
36002;DHT22;22070;50.922;5.430;2023-11-19T12:07:56;13.20;99.90
36002;DHT22;22070;50.922;5.430;2023-11-19T12:10:24;13.30;99.90
36002;DHT22;22070;50.922;5.430;2023-11-19T12:12:53;13.30;99.90
36002;DHT22;22070;50.922;5.430;2023-11-19T12:15:19;13.30;99.90
36002;DHT22;22070;50.922;5.430;2023-11-19T12:17:50;13.30;99.90
36002;DHT22;22070;50.922;5.430;2023-11-19T12:20:22;13.30;99.90
36002;DHT22;22070;50.922;5.430;2023-11-19T12:22:49;13.40;99.90
36002;DHT22;22070;50.922;5.430;2023-11-19T12:25:17;13.40;99.90
36002;DHT22;22070;50.922;5.430;2023-11-19T12:27:46;13.50;99.90
36002;DHT22;22070;50.922;5.430;2023-11-19T12:30:16;13.60;99.90
36002;DHT22;22070;50.922;5.430;2023-11-19T12:32:44;13.60;99.90
36002;DHT22;22070;50.922;5.430;2023-11-19T12:35:10;13.80;99.90
36002;DHT22;22070;50.922;5.430;2023-11-19T12:37:40;13.90;99.90
36002;DHT22;22070;50.922;5.430;2023-11-19T12:40:12;13.80;99.90
36002;DHT22;22070;50.922;5.430;2023-11-19T12:42:38;13.90;99.90
36002;DHT22;22070;50.922;5.430;2023-11-19T12:45:05;14.00;99.90
36002;DHT22;22070;50.922;5.430;2023-11-19T12:47:30;14.00;99.90
36002;DHT22;22070;50.922;5.430;2023-11-19T12:49:57;14.00;99.90
36002;DHT22;22070;50.922;5.430;2023-11-19T12:52:22;14.10;99.90
36002;DHT22;22070;50.922;5.430;2023-11-19T12:54:49;14.20;99.90
36002;DHT22;22070;50.922;5.430;2023-11-19T12:57:15;14.20;99.90
36002;DHT22;22070;50.922;5.430;2023-11-19T12:59:41;14.10;99.90
36002;DHT22;22070;50.922;5.430;2023-11-19T13:02:08;14.10;99.90
36002;DHT22;22070;50.922;5.430;2023-11-19T13:04:34;14.10;99.90
36002;DHT22;22070;50.922;5.430;2023-11-19T13:07:00;14.00;99.90
36002;DHT22;22070;50.922;5.430;2023-11-19T13:09:27;13.90;99.90
36002;DHT22;22070;50.922;5.430;2023-11-19T13:11:53;13.80;99.90
36002;DHT22;22070;50.922;5.430;2023-11-19T13:14:20;13.80;99.90
36002;DHT22;22070;50.922;5.430;2023-11-19T13:16:46;13.80;99.90
36002;DHT22;22070;50.922;5.430;2023-11-19T13:19:13;13.70;99.90
36002;DHT22;22070;50.922;5.430;2023-11-19T13:21:39;13.70;99.90
36002;DHT22;22070;50.922;5.430;2023-11-19T13:24:08;13.60;99.90
36002;DHT22;22070;50.922;5.430;2023-11-19T13:26:34;13.50;99.90
36002;DHT22;22070;50.922;5.430;2023-11-19T13:29:00;13.40;99.90
36002;DHT22;22070;50.922;5.430;2023-11-19T13:31:26;13.60;99.90
36002;DHT22;22070;50.922;5.430;2023-11-19T13:33:52;13.60;99.90
36002;DHT22;22070;50.922;5.430;2023-11-19T13:36:17;13.50;99.90
36002;DHT22;22070;50.922;5.430;2023-11-19T13:38:43;13.50;99.90
36002;DHT22;22070;50.922;5.430;2023-11-19T13:41:12;13.50;99.90
36002;DHT22;22070;50.922;5.430;2023-11-19T13:43:39;13.40;99.90
36002;DHT22;22070;50.922;5.430;2023-11-19T13:46:05;13.40;99.90
36002;DHT22;22070;50.922;5.430;2023-11-19T13:48:31;13.40;99.90
36002;DHT22;22070;50.922;5.430;2023-11-19T13:50:56;13.50;99.90
36002;DHT22;22070;50.922;5.430;2023-11-19T13:53:22;13.50;99.90
36002;DHT22;22070;50.922;5.430;2023-11-19T13:55:49;13.50;99.90
36002;DHT22;22070;50.922;5.430;2023-11-19T13:58:15;13.50;99.90
36002;DHT22;22070;50.922;5.430;2023-11-19T14:00:41;13.40;99.90
36002;DHT22;22070;50.922;5.430;2023-11-19T14:03:07;13.50;99.90
36002;DHT22;22070;50.922;5.430;2023-11-19T14:05:33;13.50;99.90
36002;DHT22;22070;50.922;5.430;2023-11-19T14:07:59;13.60;99.90
36002;DHT22;22070;50.922;5.430;2023-11-19T14:10:26;13.50;99.90
36002;DHT22;22070;50.922;5.430;2023-11-19T14:12:52;13.50;99.90
36002;DHT22;22070;50.922;5.430;2023-11-19T14:15:18;13.40;99.90
36002;DHT22;22070;50.922;5.430;2023-11-19T14:17:44;13.30;99.90
36002;DHT22;22070;50.922;5.430;2023-11-19T14:20:09;13.20;99.90
36002;DHT22;22070;50.922;5.430;2023-11-19T14:22:45;13.20;99.90
36002;DHT22;22070;50.922;5.430;2023-11-19T14:25:15;13.10;99.90
36002;DHT22;22070;50.922;5.430;2023-11-19T14:27:41;13.10;99.90
36002;DHT22;22070;50.922;5.430;2023-11-19T14:30:09;13.00;99.90
36002;DHT22;22070;50.922;5.430;2023-11-19T14:32:37;13.00;99.90
36002;DHT22;22070;50.922;5.430;2023-11-19T14:35:06;13.00;99.90
36002;DHT22;22070;50.922;5.430;2023-11-19T14:37:32;13.00;99.90
36002;DHT22;22070;50.922;5.430;2023-11-19T14:39:58;12.90;99.90
36002;DHT22;22070;50.922;5.430;2023-11-19T14:42:24;13.00;99.90
36002;DHT22;22070;50.922;5.430;2023-11-19T14:44:53;13.00;99.90
36002;DHT22;22070;50.922;5.430;2023-11-19T14:47:20;12.90;99.90
36002;DHT22;22070;50.922;5.430;2023-11-19T14:49:46;13.00;99.90
36002;DHT22;22070;50.922;5.430;2023-11-19T14:52:11;13.00;99.90
36002;DHT22;22070;50.922;5.430;2023-11-19T14:54:37;13.10;99.90
36002;DHT22;22070;50.922;5.430;2023-11-19T14:57:04;13.10;99.90
36002;DHT22;22070;50.922;5.430;2023-11-19T14:59:30;13.00;99.90
36002;DHT22;22070;50.922;5.430;2023-11-19T15:01:57;13.00;99.90
36002;DHT22;22070;50.922;5.430;2023-11-19T15:04:22;13.10;99.90
36002;DHT22;22070;50.922;5.430;2023-11-19T15:06:48;13.10;99.90
36002;DHT22;22070;50.922;5.430;2023-11-19T15:09:14;13.10;99.90
36002;DHT22;22070;50.922;5.430;2023-11-19T15:11:43;13.20;99.90
36002;DHT22;22070;50.922;5.430;2023-11-19T15:14:12;13.20;99.90
36002;DHT22;22070;50.922;5.430;2023-11-19T15:16:40;13.10;99.90
36002;DHT22;22070;50.922;5.430;2023-11-19T15:19:06;13.10;99.90
36002;DHT22;22070;50.922;5.430;2023-11-19T15:21:33;13.10;99.90
36002;DHT22;22070;50.922;5.430;2023-11-19T15:23:59;13.10;99.90
36002;DHT22;22070;50.922;5.430;2023-11-19T15:26:25;13.10;99.90
36002;DHT22;22070;50.922;5.430;2023-11-19T15:28:51;13.10;99.90
36002;DHT22;22070;50.922;5.430;2023-11-19T15:31:22;13.10;99.90
36002;DHT22;22070;50.922;5.430;2023-11-19T15:33:47;13.10;99.90
36002;DHT22;22070;50.922;5.430;2023-11-19T15:36:13;13.10;99.90
36002;DHT22;22070;50.922;5.430;2023-11-19T15:38:40;13.10;99.90
36002;DHT22;22070;50.922;5.430;2023-11-19T15:41:06;13.10;99.90
36002;DHT22;22070;50.922;5.430;2023-11-19T15:43:33;13.20;99.90